Time;durP1;ratioP1;P1;durP2;ratioP2;P2;SDS_P1;SDS_P2;PMS_P1;PMS_P2;Temp;Humidity;BMP_temperature;BMP_pressure;BME280_temperature;BME280_humidity;BME280_pressure;Samples;Min_cycle;Max_cycle;Signal;HPM_P1;HPM_P2
2021/04/26 00:02:01;;;;;;;13.18;8.50;;;13.90;86.30;;;;;;5096798;28;20020;-49
2021/04/26 00:04:26;;;;;;;14.90;8.30;;;13.90;86.00;;;;;;5096504;28;20042;-49
2021/04/26 00:06:52;;;;;;;13.35;8.07;;;13.90;85.80;;;;;;5077957;28;20551;-49
2021/04/26 00:09:18;;;;;;;11.57;6.80;;;13.90;86.50;;;;;;5097200;28;20024;-48
2021/04/26 00:11:44;;;;;;;12.32;7.45;;;13.90;86.00;;;;;;5078014;28;20040;-49
2021/04/26 00:14:10;;;;;;;11.13;6.72;;;14.00;86.10;;;;;;5077537;28;20147;-48
2021/04/26 00:16:36;;;;;;;12.18;6.40;;;13.80;85.80;;;;;;5077964;28;20048;-49
2021/04/26 00:19:03;;;;;;;8.90;5.70;;;13.80;93.40;;;;;;5096361;28;20027;-49
2021/04/26 00:21:30;;;;;;;10.55;6.13;;;13.60;86.10;;;;;;5044145;28;20047;-49
2021/04/26 00:23:56;;;;;;;11.70;6.60;;;13.70;86.30;;;;;;5077485;28;20141;-49
2021/04/26 00:26:21;;;;;;;14.80;7.53;;;13.70;86.60;;;;;;5096721;28;20470;-49
2021/04/26 00:28:47;;;;;;;14.90;8.30;;;13.70;86.30;;;;;;5096119;28;20032;-49
2021/04/26 00:31:13;;;;;;;11.85;8.13;;;13.60;87.30;;;;;;5096405;28;20027;-49
2021/04/26 00:33:39;;;;;;;12.48;7.68;;;13.60;88.20;;;;;;5043387;28;20036;-49
2021/04/26 00:36:05;;;;;;;13.43;8.60;;;13.50;88.60;;;;;;5094661;28;20063;-49
2021/04/26 00:38:31;;;;;;;14.40;8.18;;;13.30;89.10;;;;;;5096150;28;20028;-49
2021/04/26 00:40:56;;;;;;;15.15;9.50;;;13.20;89.80;;;;;;5096212;28;20379;-49
2021/04/26 00:43:22;;;;;;;14.60;8.70;;;13.30;89.80;;;;;;5095974;28;20039;-49
2021/04/26 00:45:48;;;;;;;12.65;8.13;;;13.30;89.70;;;;;;5077107;28;20038;-49
2021/04/26 00:48:14;;;;;;;12.95;8.15;;;13.30;91.70;;;;;;5077329;28;20118;-49
2021/04/26 00:50:42;;;;;;;12.93;8.32;;;13.30;91.80;;;;;;5043644;28;20474;-49
2021/04/26 00:53:08;;;;;;;13.65;7.43;;;13.40;91.50;;;;;;5077551;28;20063;-49
2021/04/26 00:55:36;;;;;;;14.68;8.50;;;13.30;91.30;;;;;;5095568;28;20031;-49
2021/04/26 00:58:03;;;;;;;14.00;7.90;;;13.30;91.00;;;;;;5077065;28;20127;-48
2021/04/26 01:00:30;;;;;;;12.90;9.20;;;13.20;89.30;;;;;;5076942;28;20099;-49
2021/04/26 01:02:57;;;;;;;12.25;8.25;;;13.10;90.30;;;;;;5095503;28;20032;-49
2021/04/26 01:05:27;;;;;;;10.68;6.93;;;13.10;90.10;;;;;;5043263;28;21007;-49
2021/04/26 01:07:54;;;;;;;11.13;7.25;;;13.10;90.50;;;;;;5076966;28;20482;-49
2021/04/26 01:10:23;;;;;;;9.95;6.70;;;13.10;91.30;;;;;;5095678;28;20036;-49
2021/04/26 01:13:08;;;;;;;14.13;7.38;;;13.10;92.80;;;;;;5095381;28;20078;-49
2021/04/26 01:15:47;;;;;;;16.95;8.40;;;12.90;90.40;;;;;;5073059;28;20032;-49
2021/04/26 01:18:29;;;;;;;11.25;5.75;;;13.00;90.70;;;;;;5072985;28;20029;-49
2021/04/26 01:21:34;;;;;;;11.32;6.82;;;13.10;90.20;;;;;;5072676;28;20071;-49
2021/04/26 01:24:22;;;;;;;16.27;8.45;;;13.10;90.20;;;;;;5072576;28;20044;-49
2021/04/26 01:27:18;;;;;;;20.75;12.10;;;13.10;90.30;;;;;;5072708;28;20036;-48
2021/04/26 01:30:08;;;;;;;9.00;6.40;;;13.10;90.30;;;;;;5056087;28;20437;-49
2021/04/26 01:33:12;;;;;;;11.40;6.82;;;12.90;90.20;;;;;;5072701;28;20051;-48
2021/04/26 01:35:38;;;;;;;12.73;7.30;;;12.90;90.40;;;;;;5072756;28;20036;-49
2021/04/26 01:38:18;;;;;;;11.43;6.88;;;12.80;90.80;;;;;;5072502;28;20124;-49
2021/04/26 01:40:47;;;;;;;10.45;6.82;;;12.80;90.70;;;;;;5070049;28;20439;-49
2021/04/26 01:43:16;;;;;;;11.75;6.68;;;12.80;91.10;;;;;;5072420;28;20046;-49
2021/04/26 01:45:43;;;;;;;11.57;7.05;;;12.90;90.50;;;;;;5075664;28;20063;-49
2021/04/26 01:48:09;;;;;;;12.32;6.28;;;12.90;91.10;;;;;;5094851;28;20024;-49
2021/04/26 01:50:36;;;;;;;9.80;5.70;;;12.90;90.80;;;;;;5095147;28;20357;-48
2021/04/26 01:53:03;;;;;;;8.75;5.65;;;12.90;90.40;;;;;;5094857;28;20028;-49
2021/04/26 01:55:29;;;;;;;11.15;6.53;;;13.00;90.70;;;;;;5094869;28;20027;-49
2021/04/26 01:57:56;;;;;;;11.52;6.18;;;13.00;90.40;;;;;;5094726;28;20028;-49
2021/04/26 02:00:32;;;;;;;10.45;5.78;;;13.10;90.40;;;;;;5094894;28;20043;-49
2021/04/26 02:02:59;;;;;;;9.57;5.70;;;13.10;90.00;;;;;;5094128;28;20022;-49
2021/04/26 02:05:27;;;;;;;9.15;5.20;;;13.10;89.00;;;;;;5094232;28;20035;-49
2021/04/26 02:07:54;;;;;;;9.65;5.07;;;13.00;88.10;;;;;;5092135;28;20387;-48
2021/04/26 02:10:28;;;;;;;9.30;5.53;;;12.70;86.20;;;;;;5094568;28;20109;-49
2021/04/26 02:12:55;;;;;;;9.30;5.32;;;12.70;88.00;;;;;;5094183;28;20491;-48
2021/04/26 02:15:22;;;;;;;9.13;5.97;;;12.60;91.90;;;;;;5094385;28;20042;-49
2021/04/26 02:17:50;;;;;;;8.43;5.32;;;12.60;92.70;;;;;;5094606;28;20495;-49
2021/04/26 02:20:17;;;;;;;9.05;5.25;;;;;;;;;;5094090;28;20107;-49
2021/04/26 02:22:43;;;;;;;8.60;5.70;;;;;;;;;;5094378;28;20020;-49
2021/04/26 02:25:11;;;;;;;10.15;6.03;;;;;;;;;;5094174;28;20352;-49
2021/04/26 02:27:37;;;;;;;9.50;5.20;;;;;;;;;;5094148;28;20478;-49
2021/04/26 02:30:07;;;;;;;10.27;5.75;;;;;;;;;;5094116;28;20078;-49
2021/04/26 02:32:39;;;;;;;9.52;5.45;;;;;;;;;;5075302;28;20479;-49
2021/04/26 02:35:05;;;;;;;;;;;;;;;;;;5094245;28;20024;-49
2021/04/26 02:37:37;;;;;;;8.45;5.90;;;;;;;;;;5091957;28;19927;-49
2021/04/26 02:40:04;;;;;;;;;;;;;;;;;;5094080;28;20071;-49
2021/04/26 02:42:31;;;;;;;6.95;4.85;;;;;;;;;;5093919;28;19935;-49
2021/04/26 02:44:57;;;;;;;8.65;4.70;;;;;;;;;;5093526;28;20035;-49
2021/04/26 02:47:24;;;;;;;9.70;5.13;;;;;;;;;;5093734;28;20028;-49
2021/04/26 02:49:51;;;;;;;8.52;4.78;;;;;;;;;;5093674;28;20024;-49
2021/04/26 02:52:17;;;;;;;8.70;5.20;;;;;;;;;;5094286;28;20028;-49
2021/04/26 02:54:44;;;;;;;9.88;5.65;;;;;;;;;;5094300;28;20040;-49
2021/04/26 02:57:10;;;;;;;9.93;5.55;;;;;;;;;;5093816;28;20045;-49
2021/04/26 02:59:38;;;;;;;9.13;4.95;;;;;;;;;;5093959;28;20032;-52
2021/04/26 03:02:04;;;;;;;9.05;5.25;;;;;;;;;;5093363;28;20056;-51
2021/04/26 03:04:31;;;;;;;12.73;6.30;;;;;;;;;;5093688;28;20036;-51
2021/04/26 03:07:00;;;;;;;9.63;6.18;;;;;;;;;;5094148;28;20103;-49
2021/04/26 03:09:27;;;;;;;10.30;5.53;;;;;;;;;;5075024;28;20029;-50
2021/04/26 03:11:54;;;;;;;8.32;5.40;;;;;;;;;;5093231;28;20028;-49
2021/04/26 03:14:20;;;;;;;16.73;6.45;;;;;;;;;;5074566;28;20146;-49
2021/04/26 03:16:50;;;;;;;12.80;5.43;;;;;;;;;;5093920;28;20024;-51
2021/04/26 03:19:19;;;;;;;10.65;5.50;;;;;;;;;;5094122;28;20024;-49
2021/04/26 03:21:46;;;;;;;10.00;5.55;;;;;;;;;;5097877;28;20024;-49
2021/04/26 03:24:16;;;;;;;11.77;5.22;;;;;;;;;;5097446;28;20459;-49
2021/04/26 03:26:44;;;;;;;10.07;5.45;;;;;;;;;;5078762;28;20036;-49
2021/04/26 03:29:11;;;;;;;9.90;6.25;;;;;;;;;;5097488;28;20466;-49
2021/04/26 03:31:37;;;;;;;12.82;5.85;;;;;;;;;;5097735;28;20036;-49
2021/04/26 03:34:03;;;;;;;8.82;5.38;;;;;;;;;;5097262;28;20036;-51
2021/04/26 03:36:30;;;;;;;14.10;5.93;;;;;;;;;;5097350;28;20047;-49
2021/04/26 03:38:56;;;;;;;9.55;5.80;;;;;;;;;;5097446;28;20043;-49
2021/04/26 03:41:23;;;;;;;11.20;5.20;;;;;;;;;;5097335;28;20024;-49
2021/04/26 03:43:49;;;;;;;8.57;5.60;;;;;;;;;;5096930;28;20060;-49
2021/04/26 03:46:15;;;;;;;8.57;5.28;;;11.70;97.80;;;;;;5097232;28;20104;-49
2021/04/26 03:48:41;;;;;;;13.70;7.15;;;11.70;99.20;;;;;;5095181;28;20032;-49
2021/04/26 03:51:07;;;;;;;12.50;6.97;;;11.90;99.50;;;;;;5061628;28;20055;-49
2021/04/26 03:53:33;;;;;;;25.45;10.27;;;12.00;99.20;;;;;;5097059;28;20024;-49
2021/04/26 03:55:58;;;;;;;11.23;6.32;;;12.10;98.80;;;;;;5097077;28;20060;-49
2021/04/26 03:58:24;;;;;;;11.85;6.93;;;12.10;99.90;;;;;;5077745;28;20044;-49
2021/04/26 04:00:50;;;;;;;14.27;6.40;;;12.10;99.80;;;;;;5096369;28;20028;-49
2021/04/26 04:03:15;;;;;;;13.48;6.63;;;12.10;99.90;;;;;;5096069;28;20061;-49
2021/04/26 04:05:42;;;;;;;14.05;6.47;;;12.30;99.90;;;;;;5077218;28;20060;-49
2021/04/26 04:08:08;;;;;;;11.15;6.30;;;12.20;99.90;;;;;;5095972;28;20028;-49
2021/04/26 04:10:35;;;;;;;13.88;6.88;;;12.30;99.90;;;;;;5096188;28;20111;-49
2021/04/26 04:13:01;;;;;;;9.50;5.57;;;12.40;99.90;;;;;;5077753;28;20148;-49
2021/04/26 04:15:27;;;;;;;11.65;6.70;;;12.30;99.90;;;;;;5096201;28;20097;-49
2021/04/26 04:17:53;;;;;;;13.60;6.53;;;12.00;99.90;;;;;;5096689;28;20024;-49
2021/04/26 04:20:19;;;;;;;15.30;6.28;;;12.10;99.90;;;;;;5096639;28;20042;-49
2021/04/26 04:22:45;;;;;;;12.00;6.63;;;12.10;99.90;;;;;;5096364;28;20471;-49
2021/04/26 04:25:12;;;;;;;10.50;6.53;;;12.30;99.90;;;;;;5077706;28;20047;-49
2021/04/26 04:27:38;;;;;;;10.10;5.97;;;;;;;;;;5077549;28;20863;-49
2021/04/26 04:30:06;;;;;;;11.55;6.68;;;;;;;;;;5096035;28;20055;-50
2021/04/26 04:32:35;;;;;;;11.20;6.72;;;12.50;99.90;;;;;;5076635;28;20036;-49
2021/04/26 04:35:01;;;;;;;13.18;6.68;;;12.60;99.90;;;;;;5077278;28;20040;-50
2021/04/26 04:37:27;;;;;;;15.60;7.85;;;;;;;;;;5076942;28;20032;-51
2021/04/26 04:39:53;;;;;;;9.50;6.90;;;;;;;;;;5077055;28;20036;-50
2021/04/26 04:42:19;;;;;;;15.35;7.65;;;12.60;99.90;;;;;;5095634;28;20036;-51
2021/04/26 04:44:45;;;;;;;13.18;7.90;;;12.30;99.90;;;;;;5096159;28;20337;-50
2021/04/26 04:47:11;;;;;;;12.25;7.30;;;12.40;99.90;;;;;;5077161;28;20039;-51
2021/04/26 04:49:36;;;;;;;13.05;6.40;;;12.40;99.90;;;;;;5095862;28;20130;-50
2021/04/26 04:52:03;;;;;;;10.65;6.13;;;12.30;99.90;;;;;;5095988;28;20027;-50
2021/04/26 04:54:29;;;;;;;9.00;5.57;;;12.20;99.90;;;;;;5076883;28;20081;-50
2021/04/26 04:56:54;;;;;;;9.20;5.82;;;12.30;99.90;;;;;;5095876;28;20096;-50
2021/04/26 04:59:21;;;;;;;9.32;5.90;;;12.30;99.90;;;;;;5076919;28;20043;-49
2021/04/26 05:01:47;;;;;;;11.18;6.47;;;;;;;;;;5076721;28;20059;-50
2021/04/26 05:04:13;;;;;;;13.27;7.60;;;;;;;;;;5095342;28;20032;-50
2021/04/26 05:06:39;;;;;;;9.90;7.00;;;;;;;;;;5095487;28;20463;-50
2021/04/26 05:09:09;;;;;;;10.18;7.40;;;;;;;;;;5095502;28;20027;-50
2021/04/26 05:11:36;;;;;;;13.98;9.55;;;;;;;;;;5095457;28;20027;-50
2021/04/26 05:14:02;;;;;;;16.15;9.82;;;;;;;;;;5095103;28;20127;-50
2021/04/26 05:16:29;;;;;;;13.63;9.57;;;12.70;99.90;;;;;;5095771;28;20059;-50
2021/04/26 05:18:57;;;;;;;12.85;6.65;;;;;;;;;;5095896;28;20536;-50
2021/04/26 05:21:23;;;;;;;10.70;6.82;;;12.80;99.90;;;;;;5095731;28;20028;-50
2021/04/26 05:23:49;;;;;;;12.73;6.90;;;12.60;99.90;;;;;;5043082;28;20479;-50
2021/04/26 05:26:15;;;;;;;12.05;6.82;;;12.50;99.90;;;;;;5095225;28;20031;-50
2021/04/26 05:28:40;;;;;;;10.20;6.32;;;12.50;99.90;;;;;;5095038;28;20456;-50
2021/04/26 05:31:06;;;;;;;12.48;6.95;;;12.60;99.90;;;;;;5076592;28;20036;-50
2021/04/26 05:33:32;;;;;;;11.25;6.63;;;12.80;99.90;;;;;;5094893;28;20024;-50
2021/04/26 05:35:58;;;;;;;9.80;6.28;;;12.80;99.90;;;;;;5095117;28;20052;-49
2021/04/26 05:38:23;;;;;;;10.82;6.97;;;12.60;99.90;;;;;;5093915;28;20036;-50
2021/04/26 05:40:49;;;;;;;8.95;6.50;;;12.50;99.90;;;;;;5095008;28;20035;-50
2021/04/26 05:43:16;;;;;;;11.55;6.57;;;;;;;;;;5093843;28;20379;-49
2021/04/26 05:45:42;;;;;;;12.07;7.53;;;12.40;99.90;;;;;;5094723;28;20036;-50
2021/04/26 05:48:09;;;;;;;13.45;7.72;;;12.50;99.90;;;;;;5094918;28;20020;-50
2021/04/26 05:50:36;;;;;;;13.25;6.78;;;12.70;99.90;;;;;;5095234;28;20031;-50
2021/04/26 05:53:02;;;;;;;10.23;7.03;;;12.70;99.90;;;;;;5095266;28;20023;-50
2021/04/26 05:55:28;;;;;;;11.52;7.88;;;12.70;99.90;;;;;;5076161;28;20379;-50
2021/04/26 05:57:54;;;;;;;9.80;5.63;;;;;;;;;;5094684;28;20024;-49
2021/04/26 06:00:20;;;;;;;11.63;7.00;;;;;;;;;;5095178;28;20051;-50
2021/04/26 06:02:46;;;;;;;10.65;7.30;;;12.10;99.90;;;;;;5075734;28;20028;-50
2021/04/26 06:05:12;;;;;;;11.82;7.32;;;12.30;99.90;;;;;;5094572;28;20540;-49
2021/04/26 06:07:39;;;;;;;9.65;7.20;;;12.60;99.90;;;;;;5042113;28;20055;-50
2021/04/26 06:10:05;;;;;;;9.90;6.70;;;12.70;99.90;;;;;;5094608;28;20032;-50
2021/04/26 06:12:33;;;;;;;12.65;7.30;;;12.60;99.90;;;;;;5075418;28;20044;-50
2021/04/26 06:14:59;;;;;;;13.27;6.90;;;12.70;99.90;;;;;;5094610;28;20028;-50
2021/04/26 06:17:25;;;;;;;10.80;7.15;;;12.60;99.90;;;;;;5094113;28;20020;-50
2021/04/26 06:19:50;;;;;;;9.63;6.43;;;12.70;99.90;;;;;;5094347;28;20027;-49
2021/04/26 06:22:16;;;;;;;12.55;7.88;;;12.90;99.90;;;;;;5042087;28;20032;-50
2021/04/26 06:24:42;;;;;;;11.52;7.32;;;13.20;99.90;;;;;;5074501;28;20123;-49
2021/04/26 06:27:08;;;;;;;9.98;7.43;;;12.90;99.90;;;;;;5074920;28;20127;-50
2021/04/26 06:29:34;;;;;;;11.55;6.90;;;12.80;99.90;;;;;;5093945;28;20107;-50
2021/04/26 06:32:00;;;;;;;8.93;6.82;;;13.00;99.90;;;;;;5071921;28;20131;-50
2021/04/26 06:34:26;;;;;;;10.90;6.43;;;12.90;99.90;;;;;;5089615;28;20067;-50
2021/04/26 06:36:52;;;;;;;8.63;6.00;;;13.10;99.90;;;;;;5093794;28;20077;-50
2021/04/26 06:39:18;;;;;;;8.60;6.60;;;;;;;;;;5093715;28;20024;-50
2021/04/26 06:41:44;;;;;;;8.52;6.00;;;13.30;99.90;;;;;;5094089;28;20024;-50
2021/04/26 06:44:10;;;;;;;10.35;6.18;;;;;;;;;;5089469;28;20040;-51
2021/04/26 06:46:36;;;;;;;10.20;7.03;;;;;;;;;;5097503;28;20027;-49
2021/04/26 06:49:02;;;;;;;11.20;6.55;;;13.50;99.90;;;;;;5091749;28;20376;-50
2021/04/26 06:51:27;;;;;;;9.98;5.97;;;13.60;99.90;;;;;;5099241;28;20038;-50
2021/04/26 06:53:53;;;;;;;9.52;6.75;;;13.60;99.90;;;;;;5084922;28;20032;-50
2021/04/26 06:56:19;;;;;;;11.73;7.00;;;;;;;;;;5094564;28;20028;-50
2021/04/26 06:58:45;;;;;;;9.18;6.25;;;13.90;99.90;;;;;;5091533;28;20064;-49
2021/04/26 07:01:11;;;;;;;11.50;7.10;;;13.70;99.90;;;;;;5094715;28;20051;-50
2021/04/26 07:03:37;;;;;;;11.20;6.88;;;13.90;99.90;;;;;;5094768;28;20109;-50
2021/04/26 07:06:03;;;;;;;11.50;6.53;;;14.00;99.90;;;;;;5113896;28;20062;-48
2021/04/26 07:08:28;;;;;;;8.52;6.40;;;13.90;99.90;;;;;;5113667;28;20073;-47
2021/04/26 07:10:54;;;;;;;11.45;6.20;;;14.30;99.90;;;;;;5113835;28;20027;-47
2021/04/26 07:13:20;;;;;;;10.95;6.88;;;14.30;99.90;;;;;;5090666;28;20062;-48
2021/04/26 07:15:47;;;;;;;11.00;6.25;;;;;;;;;;5063282;28;20490;-47
2021/04/26 07:18:13;;;;;;;9.52;6.40;;;14.60;99.90;;;;;;5094216;28;20032;-51
2021/04/26 07:20:39;;;;;;;7.57;5.43;;;14.30;99.90;;;;;;5104767;28;20071;-47
2021/04/26 07:23:05;;;;;;;9.82;5.95;;;14.70;99.90;;;;;;5084055;28;20035;-47
2021/04/26 07:25:30;;;;;;;8.48;5.70;;;14.60;99.90;;;;;;5084263;28;20467;-47
2021/04/26 07:27:56;;;;;;;9.18;5.82;;;14.60;99.90;;;;;;5094312;28;20039;-45
2021/04/26 07:30:22;;;;;;;10.73;6.63;;;14.90;99.90;;;;;;5102922;28;20051;-47
2021/04/26 07:32:48;;;;;;;9.43;6.10;;;14.90;99.90;;;;;;5072989;28;20041;-50
2021/04/26 07:35:15;;;;;;;8.38;5.88;;;14.90;99.90;;;;;;5088546;28;20170;-48
2021/04/26 07:37:42;;;;;;;8.38;5.57;;;14.90;99.90;;;;;;5093250;28;20039;-50
2021/04/26 07:40:10;;;;;;;8.52;6.00;;;15.00;99.90;;;;;;5100134;28;20032;-47
2021/04/26 07:42:36;;;;;;;10.07;6.13;;;14.90;99.90;;;;;;5111103;28;20039;-50
2021/04/26 07:45:03;;;;;;;9.15;5.78;;;15.20;99.90;;;;;;5076885;28;20042;-51
2021/04/26 07:47:28;;;;;;;9.05;5.50;;;15.60;99.90;;;;;;5077454;28;20089;-53
2021/04/26 07:49:54;;;;;;;10.68;6.30;;;15.50;99.90;;;;;;5098908;28;20036;-52
2021/04/26 07:52:20;;;;;;;9.13;5.95;;;15.40;99.90;;;;;;5090469;28;20059;-49
2021/04/26 07:54:46;;;;;;;8.35;5.78;;;15.40;99.90;;;;;;5090714;28;20130;-49
2021/04/26 07:57:11;;;;;;;7.80;5.93;;;15.70;99.90;;;;;;5090878;28;20032;-49
2021/04/26 07:59:37;;;;;;;11.05;5.82;;;15.70;99.90;;;;;;5073605;28;20068;-49
2021/04/26 08:02:03;;;;;;;9.02;6.35;;;15.70;99.90;;;;;;5090594;28;20035;-49
2021/04/26 08:04:29;;;;;;;10.90;5.70;;;15.60;99.90;;;;;;5090830;28;20036;-49
2021/04/26 08:06:55;;;;;;;7.95;5.47;;;16.00;99.90;;;;;;5092635;28;20086;-49
2021/04/26 08:09:21;;;;;;;9.68;5.35;;;16.00;99.80;;;;;;5094433;28;20052;-49
2021/04/26 08:11:47;;;;;;;10.98;5.40;;;16.20;99.90;;;;;;5073468;28;20454;-49
2021/04/26 08:14:13;;;;;;;9.98;6.45;;;16.50;99.60;;;;;;5111333;28;20134;-50
2021/04/26 08:16:39;;;;;;;8.32;5.78;;;16.30;99.30;;;;;;5096743;28;20024;-49
2021/04/26 08:19:05;;;;;;;11.52;6.78;;;;;;;;;;5096858;28;20028;-49
2021/04/26 08:21:31;;;;;;;9.13;6.03;;;16.70;99.00;;;;;;5096437;28;20024;-49
2021/04/26 08:23:57;;;;;;;10.27;6.10;;;17.20;99.90;;;;;;5096224;28;20055;-49
2021/04/26 08:26:24;;;;;;;9.80;5.78;;;17.40;99.90;;;;;;5096311;28;20102;-50
2021/04/26 08:28:50;;;;;;;9.98;6.50;;;17.20;98.40;;;;;;5094371;28;20423;-50
2021/04/26 08:31:16;;;;;;;8.75;6.10;;;17.20;98.10;;;;;;5096351;28;20058;-49
2021/04/26 08:33:41;;;;;;;10.85;6.18;;;17.00;97.30;;;;;;5096285;28;20056;-49
2021/04/26 08:36:08;;;;;;;9.65;5.97;;;16.90;97.90;;;;;;5110834;28;20059;-49
2021/04/26 08:38:35;;;;;;;7.60;5.55;;;17.20;98.00;;;;;;5111336;28;20363;-49
2021/04/26 08:41:01;;;;;;;9.68;6.10;;;17.50;98.20;;;;;;5096392;28;20028;-50
2021/04/26 08:43:29;;;;;;;8.48;5.35;;;18.00;97.50;;;;;;5095906;28;20036;-50
2021/04/26 08:45:58;;;;;;;8.68;5.78;;;17.50;96.00;;;;;;5095789;28;20028;-49
2021/04/26 08:48:25;;;;;;;8.30;5.20;;;17.70;96.30;;;;;;5095881;28;20028;-50
2021/04/26 08:50:51;;;;;;;9.23;6.57;;;18.00;96.70;;;;;;5095974;28;20028;-49
2021/04/26 08:53:17;;;;;;;9.85;6.38;;;18.20;96.20;;;;;;5093854;28;20035;-50
2021/04/26 08:55:43;;;;;;;9.77;6.60;;;18.40;96.20;;;;;;5094019;28;20081;-50
2021/04/26 08:58:09;;;;;;;9.77;5.82;;;18.60;97.50;;;;;;5095950;28;20020;-50
2021/04/26 09:00:35;;;;;;;9.80;5.55;;;18.60;94.00;;;;;;5093728;28;20036;-49
2021/04/26 09:03:04;;;;;;;8.23;5.90;;;19.10;94.70;;;;;;5096132;28;20034;-50
2021/04/26 09:05:33;;;;;;;6.95;5.20;;;18.60;94.60;;;;;;5095556;28;20028;-49
2021/04/26 09:08:00;;;;;;;6.95;5.25;;;18.60;93.10;;;;;;5095841;28;20038;-49
2021/04/26 09:10:47;;;;;;;6.68;5.05;;;18.80;92.40;;;;;;5095418;28;20036;-50
2021/04/26 09:13:31;;;;;;;9.40;6.07;;;;;;;;;;5095328;28;20036;-50
2021/04/26 09:15:58;;;;;;;8.55;4.88;;;;;;;;;;5095710;28;20020;-50
2021/04/26 09:18:59;;;;;;;11.05;4.60;;;19.20;99.90;;;;;;5095184;28;20024;-49
2021/04/26 09:21:29;;;;;;;5.93;4.28;;;;;;;;;;5019266;28;20045;-49
2021/04/26 09:24:14;;;;;;;6.38;4.90;;;19.90;81.40;;;;;;5019385;28;20047;-49
2021/04/26 09:26:41;;;;;;;8.35;3.70;;;19.90;83.50;;;;;;5052816;28;20479;-49
2021/04/26 09:29:12;;;;;;;4.75;2.95;;;19.50;79.70;;;;;;5052476;28;20037;-49
2021/04/26 09:31:38;;;;;;;7.30;3.95;;;18.80;78.30;;;;;;5052684;28;20033;-49
2021/04/26 09:34:04;;;;;;;8.15;4.35;;;19.30;81.10;;;;;;5019294;28;20057;-49
2021/04/26 09:36:33;;;;;;;8.63;4.95;;;19.80;80.80;;;;;;4986343;28;20040;-50
2021/04/26 09:39:04;;;;;;;11.65;5.95;;;20.20;79.80;;;;;;5052447;28;20029;-50
2021/04/26 09:41:32;;;;;;;7.47;4.60;;;19.80;75.30;;;;;;5050222;28;20033;-50
2021/04/26 09:44:00;;;;;;;10.82;5.78;;;19.50;78.90;;;;;;5052448;28;20431;-49
2021/04/26 09:46:50;;;;;;;6.70;4.55;;;19.30;79.90;;;;;;5052335;28;20063;-50
2021/04/26 09:49:27;;;;;;;7.05;5.07;;;20.10;82.70;;;;;;5051941;28;20492;-49
2021/04/26 09:51:59;;;;;;;9.77;5.45;;;20.30;76.40;;;;;;5052359;28;20028;-50
2021/04/26 09:54:36;;;;;;;9.23;5.65;;;20.10;77.00;;;;;;5056237;28;20083;-51
2021/04/26 09:57:02;;;;;;;8.85;5.00;;;20.00;74.00;;;;;;5109530;28;20039;-49
2021/04/26 09:59:28;;;;;;;6.72;4.28;;;20.30;72.20;;;;;;5094860;28;20429;-49
2021/04/26 10:01:55;;;;;;;8.63;4.53;;;20.40;70.50;;;;;;5109592;28;20035;-49
2021/04/26 10:04:21;;;;;;;8.27;4.85;;;19.70;72.10;;;;;;5094723;28;20371;-50
2021/04/26 10:06:47;;;;;;;10.30;4.45;;;19.80;73.10;;;;;;5109647;28;20130;-50
2021/04/26 10:09:13;;;;;;;6.30;4.47;;;19.70;72.00;;;;;;5094704;28;20028;-49
2021/04/26 10:11:39;;;;;;;6.47;3.78;;;19.90;72.20;;;;;;5094390;28;20074;-50
2021/04/26 10:14:10;;;;;;;8.30;4.15;;;20.20;71.70;;;;;;5094353;28;20048;-49
2021/04/26 10:16:53;;;;;;;7.60;4.07;;;20.30;71.20;;;;;;5094232;28;20039;-49
2021/04/26 10:19:27;;;;;;;6.65;3.53;;;;;;;;;;5093916;28;20678;-50
2021/04/26 10:21:59;;;;;;;7.20;3.45;;;21.20;68.90;;;;;;5094222;28;20070;-50
2021/04/26 10:24:26;;;;;;;5.95;4.20;;;21.50;72.00;;;;;;5094232;28;20036;-50
2021/04/26 10:27:05;;;;;;;8.13;4.15;;;20.50;68.90;;;;;;5094041;28;20028;-50
2021/04/26 10:29:34;;;;;;;5.75;3.80;;;20.30;70.00;;;;;;5093583;28;20042;-49
2021/04/26 10:32:08;;;;;;;6.15;4.35;;;20.70;69.70;;;;;;5094530;28;20081;-49
2021/04/26 10:34:42;;;;;;;5.13;3.55;;;21.20;70.50;;;;;;5108728;28;20039;-50
2021/04/26 10:37:17;;;;;;;6.30;3.70;;;20.90;68.10;;;;;;5094011;28;20115;-49
2021/04/26 10:39:58;;;;;;;6.50;3.80;;;21.20;71.90;;;;;;5093916;28;20016;-50
2021/04/26 10:42:40;;;;;;;9.43;4.13;;;21.80;70.70;;;;;;5094114;28;20028;-51
2021/04/26 10:45:12;;;;;;;6.13;3.67;;;22.20;70.50;;;;;;5093871;28;20032;-49
2021/04/26 10:47:39;;;;;;;5.22;3.45;;;21.60;68.50;;;;;;5093816;28;20028;-50
2021/04/26 10:50:05;;;;;;;6.82;3.42;;;21.10;68.40;;;;;;5093712;28;20024;-49
2021/04/26 10:52:33;;;;;;;7.10;4.47;;;20.60;68.40;;;;;;5108695;28;20047;-50
2021/04/26 10:55:04;;;;;;;6.75;4.25;;;20.30;68.70;;;;;;5093931;28;20451;-49
2021/04/26 10:57:33;;;;;;;4.57;3.20;;;21.20;68.40;;;;;;5093693;28;20028;-49
2021/04/26 11:00:29;;;;;;;5.10;3.55;;;21.50;68.80;;;;;;5093802;28;20036;-50
2021/04/26 11:03:07;;;;;;;5.35;3.70;;;21.60;67.50;;;;;;5051021;28;20033;-49
2021/04/26 11:05:34;;;;;;;4.70;3.42;;;21.60;68.60;;;;;;5017940;28;20124;-50
2021/04/26 11:10:29;;;;;;;5.30;3.88;;;21.50;67.40;;;;;;5050996;28;20037;-49
2021/04/26 11:12:56;;;;;;;6.20;3.72;;;21.40;67.60;;;;;;5050988;28;20088;-49
2021/04/26 11:15:24;;;;;;;7.05;3.60;;;21.50;67.30;;;;;;5051376;28;20607;-49
2021/04/26 11:17:51;;;;;;;5.80;3.00;;;21.70;66.80;;;;;;5051023;28;20032;-51
2021/04/26 11:20:24;;;;;;;6.13;4.18;;;21.20;67.30;;;;;;5051220;28;20159;-50
2021/04/26 11:22:57;;;;;;;9.82;4.10;;;20.50;65.90;;;;;;5050916;28;20029;-49
2021/04/26 11:25:32;;;;;;;8.80;4.72;;;20.10;67.10;;;;;;5051017;28;20106;-50
2021/04/26 11:27:58;;;;;;;6.45;3.70;;;20.40;67.60;;;;;;5017896;28;20494;-49
2021/04/26 11:30:29;;;;;;;7.78;4.68;;;20.70;68.10;;;;;;5016658;28;20526;-53
2021/04/26 11:33:00;;;;;;;6.88;4.10;;;20.70;68.30;;;;;;5050904;28;20192;-49
2021/04/26 11:35:26;;;;;;;8.32;4.35;;;20.90;65.80;;;;;;5050667;28;20037;-50
2021/04/26 11:37:53;;;;;;;6.20;3.85;;;20.50;67.10;;;;;;5050776;28;20049;-51
2021/04/26 11:40:25;;;;;;;7.55;4.30;;;20.60;68.90;;;;;;5082137;28;20048;-50
2021/04/26 11:42:51;;;;;;;6.60;3.95;;;20.30;69.40;;;;;;5097680;28;20032;-50
2021/04/26 11:45:21;;;;;;;8.60;4.75;;;20.00;77.70;;;;;;5097746;28;20360;-50
2021/04/26 11:47:49;;;;;;;7.10;4.38;;;19.70;70.80;;;;;;5097569;28;20085;-50
2021/04/26 11:50:15;;;;;;;7.15;4.55;;;19.40;68.70;;;;;;5112593;28;20036;-50
2021/04/26 11:52:41;;;;;;;5.53;4.10;;;19.10;69.40;;;;;;5097146;28;20386;-50
2021/04/26 11:55:09;;;;;;;5.78;4.00;;;19.00;69.80;;;;;;5097135;28;20030;-50
2021/04/26 11:57:57;;;;;;;8.00;4.10;;;19.40;71.00;;;;;;5094910;28;20544;-51
2021/04/26 12:00:24;;;;;;;7.05;4.32;;;19.40;70.40;;;;;;5097173;28;20051;-50
2021/04/26 12:02:53;;;;;;;6.80;4.55;;;19.20;69.70;;;;;;5097064;28;20111;-50
2021/04/26 12:05:24;;;;;;;8.18;5.40;;;19.10;69.40;;;;;;5097095;28;20504;-50
2021/04/26 12:07:54;;;;;;;5.65;4.35;;;19.10;69.90;;;;;;5112035;28;20094;-50
2021/04/26 12:10:22;;;;;;;9.25;4.97;;;18.90;70.80;;;;;;5095877;28;20058;-50
2021/04/26 12:12:52;;;;;;;5.90;3.60;;;18.80;70.90;;;;;;5111640;28;20487;-49
2021/04/26 12:15:20;;;;;;;7.40;4.72;;;19.20;73.20;;;;;;5096776;28;20028;-50
2021/04/26 12:17:49;;;;;;;7.45;4.20;;;19.10;70.40;;;;;;5111620;28;20433;-50
2021/04/26 12:20:21;;;;;;;6.47;4.13;;;19.30;71.40;;;;;;5096774;28;20063;-50
2021/04/26 12:22:51;;;;;;;6.80;4.53;;;19.40;70.80;;;;;;5096402;28;20085;-50
2021/04/26 12:25:18;;;;;;;5.65;3.95;;;19.60;72.80;;;;;;5094518;28;20136;-50
2021/04/26 12:27:44;;;;;;;7.07;4.10;;;20.10;71.90;;;;;;5096425;28;20036;-50
2021/04/26 12:30:20;;;;;;;5.70;3.72;;;20.30;70.00;;;;;;5096536;28;20027;-51
2021/04/26 12:32:46;;;;;;;6.55;4.78;;;20.20;71.50;;;;;;5094242;28;20036;-50
2021/04/26 12:35:19;;;;;;;7.75;4.25;;;19.90;70.70;;;;;;5096454;28;20061;-50
2021/04/26 12:37:49;;;;;;;5.93;3.83;;;20.00;70.60;;;;;;5096314;28;20035;-51
2021/04/26 12:40:34;;;;;;;6.45;3.72;;;20.10;70.60;;;;;;5096368;28;20340;-50
2021/04/26 12:43:06;;;;;;;8.20;4.28;;;20.60;70.10;;;;;;5096305;28;20024;-50
2021/04/26 12:45:45;;;;;;;6.88;4.47;;;20.90;70.40;;;;;;5094090;28;20043;-50
2021/04/26 12:48:12;;;;;;;6.65;4.15;;;;;;;;;;5096361;28;20085;-50
2021/04/26 12:50:45;;;;;;;8.43;4.80;;;21.40;69.30;;;;;;5096494;28;20024;-50
2021/04/26 12:53:29;;;;;;;7.05;4.07;;;21.50;68.80;;;;;;5110679;28;20112;-50
2021/04/26 12:55:55;;;;;;;5.70;4.03;;;21.30;68.70;;;;;;5110766;28;20455;-50
2021/04/26 12:58:36;;;;;;;4.82;3.78;;;21.10;66.60;;;;;;5111250;28;20047;-50
2021/04/26 13:01:05;;;;;;;5.88;3.88;;;21.60;67.70;;;;;;5095979;28;20368;-50
2021/04/26 13:03:35;;;;;;;7.05;3.85;;;21.50;68.70;;;;;;5095338;28;20028;-50
2021/04/26 13:06:11;;;;;;;6.38;3.67;;;21.40;68.10;;;;;;5095680;28;20036;-50
2021/04/26 13:08:44;;;;;;;7.55;3.97;;;21.00;68.70;;;;;;5095546;28;20024;-50
2021/04/26 13:11:34;;;;;;;6.13;4.00;;;20.70;68.50;;;;;;5094627;28;20048;-50
2021/04/26 13:14:07;;;;;;;6.72;4.03;;;20.80;68.00;;;;;;5095216;28;20123;-50